Time;durP1;ratioP1;P1;durP2;ratioP2;P2;SDS_P1;SDS_P2;PMS_P1;PMS_P2;Temp;Humidity;BMP_temperature;BMP_pressure;BME280_temperature;BME280_humidity;BME280_pressure;Samples;Min_cycle;Max_cycle;Signal;HPM_P1;HPM_P2
2022/02/03 00:00:31;;;;;;;190.60;35.40;;;;;;;;;;5095646;27;20062;-86
2022/02/03 00:05:53;;;;;;;209.60;37.70;;;;;;;;;;5095004;27;20054;-78
2022/02/03 00:08:49;;;;;;;187.40;36.10;;;;;;;;;;5107493;27;20366;-80
2022/02/03 00:24:45;;;;;;;127.82;28.90;;;;;;;;;;5108691;27;20054;-78
2022/02/03 00:27:18;;;;;;;126.45;28.83;;;;;;;;;;5109177;27;20074;-78
2022/02/03 00:30:05;;;;;;;107.17;26.50;;;;;;;;;;5112916;27;20398;-78
2022/02/03 00:48:57;;;;;;;107.97;28.52;;;;;;;;;;5109580;27;20429;-79
2022/02/03 00:51:23;;;;;;;140.60;31.85;;;;;;;;;;5097349;27;20055;-80
2022/02/03 00:53:50;;;;;;;138.20;31.50;;;;;;;;;;5108759;27;20055;-80
2022/02/03 00:56:17;;;;;;;136.07;32.03;;;;;;;;;;5110549;27;20059;-80
2022/02/03 00:58:49;;;;;;;118.93;31.23;;;;;;;;;;5110638;27;20043;-79
2022/02/03 01:01:17;;;;;;;126.38;30.17;;;;;;;;;;5094368;27;20433;-79
2022/02/03 01:03:44;;;;;;;120.65;29.58;;;;;;;;;;5092731;27;21482;-79
2022/02/03 01:06:13;;;;;;;130.75;29.20;;;;;;;;;;5109518;28;20093;-79
2022/02/03 01:08:43;;;;;;;109.40;28.15;;;;;;;;;;5093639;27;20050;-79
2022/02/03 01:11:17;;;;;;;103.28;26.30;;;;;;;;;;5111023;27;20738;-81
2022/02/03 01:53:40;;;;;;;154.25;39.63;;;;;;;;;;5137539;27;20047;-80
2022/02/03 01:56:11;;;;;;;161.10;41.00;;;;;;;;;;5118638;27;20398;-79
2022/02/03 01:58:46;;;;;;;140.65;40.03;;;;;;;;;;5107989;27;20055;-79
2022/02/03 02:01:22;;;;;;;145.75;39.35;;;;;;;;;;5093754;27;21982;-79
2022/02/03 02:03:51;;;;;;;163.07;40.42;;;;;;;;;;5114297;27;20123;-79
2022/02/03 02:06:23;;;;;;;150.80;41.58;;;;;;;;;;5115225;27;20077;-80
2022/02/03 02:09:07;;;;;;;163.18;40.25;;;;;;;;;;5093520;27;20092;-80
2022/02/03 02:12:02;;;;;;;144.10;40.42;;;;;;;;;;5112429;27;20068;-79
2022/02/03 02:37:52;;;;;;;134.88;41.58;;;;;;;;;;5110507;27;20126;-80
2022/02/03 02:39:38;;;;;;;142.52;40.55;;;;;;;;;;5100335;27;20045;-79
2022/02/03 02:44:39;;;;;;;131.35;41.53;;;;;;;;;;5108826;27;20051;-79
2022/02/03 02:47:09;;;;;;;107.60;38.27;;;;;;;;;;5116181;27;20424;-80
2022/02/03 02:49:45;;;;;;;115.05;38.42;;;;;;;;;;5111686;27;20057;-79
2022/02/03 02:52:17;;;;;;;118.07;39.92;;;;;;;;;;5112861;27;20066;-80
2022/02/03 02:57:43;;;;;;;117.88;39.47;;;;;;;;;;5108573;27;20072;-81
2022/02/03 03:30:40;;;;;;;112.70;37.13;;;;;;;;;;5112498;27;20179;-78
2022/02/03 03:35:54;;;;;;;104.97;35.85;;;;;;;;;;5114710;27;20051;-79
2022/02/03 03:38:22;;;;;;;96.05;35.10;;;;;;;;;;5095552;27;20062;-79
2022/02/03 03:40:50;;;;;;;95.22;35.75;;;;;;;;;;5112589;27;20047;-78
2022/02/03 03:43:25;;;;;;;104.00;37.53;;;;;;;;;;5109755;27;20389;-81
2022/02/03 03:45:52;;;;;;;102.90;35.38;;;;;;;;;;5110332;27;20127;-78
2022/02/03 03:48:20;;;;;;;107.68;36.35;;;;;;;;;;5111575;27;20393;-80
2022/02/03 03:50:51;;;;;;;109.88;36.33;;;;;;;;;;5108654;27;20417;-79
2022/02/03 03:53:27;;;;;;;110.97;38.17;;;;;;;;;;5112379;27;20054;-79
2022/02/03 03:56:12;;;;;;;122.43;38.50;;;;;;;;;;5112851;27;20139;-80
2022/02/03 04:41:07;;;;;;;73.55;32.22;;;;;;;;;;5109414;27;20551;-80
2022/02/03 04:43:30;;;;;;;76.13;33.65;;;;;;;;;;5130899;27;20046;-79
2022/02/03 04:55:18;;;;;;;70.70;30.95;;;;;;;;;;5136067;27;20058;-79
2022/02/03 04:57:50;;;;;;;83.38;34.55;;;;;;;;;;5105190;28;20126;-79
2022/02/03 05:03:20;;;;;;;87.43;36.33;;;;;;;;;;5107035;28;20083;-79
2022/02/03 05:06:25;;;;;;;91.78;40.25;;;;;;;;;;5137359;27;20073;-78
2022/02/03 05:09:37;;;;;;;82.68;39.38;;;;;;;;;;5091531;27;20042;-79
2022/02/03 05:12:30;;;;;;;100.38;42.40;;;;;;;;;;5106815;27;20070;-78
2022/02/03 05:21:21;;;;;;;96.13;42.03;;;;;;;;;;5097333;27;20055;-78
2022/02/03 05:31:56;;;;;;;97.32;42.13;;;;;;;;;;5106977;28;20043;-80
2022/02/03 05:46:54;;;;;;;117.32;47.45;;;;;;;;;;5102099;28;20120;-78
2022/02/03 05:52:35;;;;;;;124.43;48.47;;;;;;;;;;5137165;27;20112;-79
2022/02/03 06:01:51;;;;;;;119.32;48.42;;;;;;;;;;5098798;28;20082;-79
2022/02/03 06:27:23;;;;;;;124.35;49.00;;;;;;;;;;5100863;27;20485;-78
2022/02/03 06:27:44;;;;;;;136.32;50.38;;;;;;;;;;5122481;27;20086;-78
2022/02/03 06:30:11;;;;;;;127.93;48.08;;;;;;;;;;5104090;27;20047;-77
2022/02/03 06:32:37;;;;;;;130.30;50.72;;;;;;;;;;5108903;27;20103;-76
2022/02/03 06:35:03;;;;;;;129.05;51.15;;;;;;;;;;5103100;27;20043;-79
2022/02/03 06:37:31;;;;;;;131.43;51.20;;;;;;;;;;5139368;27;20043;-79
2022/02/03 06:39:58;;;;;;;127.57;49.70;;;;;;;;;;5117399;27;20056;-80
2022/02/03 06:42:24;;;;;;;133.13;50.15;;;;;;;;;;5098167;27;20050;-80
2022/02/03 06:44:55;;;;;;;125.88;50.13;;;;;;;;;;5114740;27;20132;-82
2022/02/03 06:50:09;;;;;;;111.85;48.58;;;;;;;;;;5113899;27;20075;-77
2022/02/03 06:57:42;;;;;;;107.97;44.47;;;;;;;;;;5096710;27;20043;-79
2022/02/03 07:00:17;;;;;;;96.57;41.25;;;;;;;;;;5123321;27;20058;-78
2022/02/03 07:02:46;;;;;;;101.10;42.05;;;;;;;;;;5102313;28;20398;-86
2022/02/03 07:05:12;;;;;;;100.57;43.97;;;;;;;;;;5104599;27;20403;-82
2022/02/03 07:07:40;;;;;;;101.22;43.38;;;;;;;;;;5115407;27;20055;-77
2022/02/03 07:10:07;;;;;;;94.43;40.97;;;;;;;;;;5077234;28;20050;-77
2022/02/03 07:12:33;;;;;;;94.40;40.92;;;;;;;;;;5094103;27;20057;-77
2022/02/03 07:15:01;;;;;;;83.22;37.28;;;;;;;;;;5112008;27;20043;-78
2022/02/03 07:17:27;;;;;;;84.70;37.97;;;;;;;;;;5106473;27;20078;-77
2022/02/03 07:20:00;;;;;;;83.45;36.13;;;;;;;;;;5071533;27;20047;-81
2022/02/03 07:22:26;;;;;;;85.03;35.75;;;;;;;;;;5089508;27;20054;-77
2022/02/03 07:24:52;;;;;;;76.32;34.97;;;;;;;;;;5109893;27;20046;-77
2022/02/03 07:27:19;;;;;;;82.40;34.60;;;;;;;;;;5112931;27;20077;-77
2022/02/03 07:29:45;;;;;;;76.72;33.03;;;;;;;;;;5100474;28;20051;-81
2022/02/03 07:32:11;;;;;;;80.88;31.98;;;;;;;;;;5104444;28;20149;-77
2022/02/03 07:34:39;;;;;;;73.78;33.20;;;;;;;;;;5112301;27;20043;-77
2022/02/03 07:37:05;;;;;;;74.10;31.77;;;;;;;;;;5113335;27;20493;-85
2022/02/03 07:39:31;;;;;;;63.10;29.92;;;;;;;;;;5093640;27;20562;-77
2022/02/03 07:41:58;;;;;;;69.65;31.45;;;;;;;;;;5122937;27;20054;-77
2022/02/03 07:44:24;;;;;;;59.65;31.40;;;;;;;;;;5109567;27;20055;-77
2022/02/03 07:46:51;;;;;;;65.47;31.15;;;;;;;;;;5115212;27;20047;-77
2022/02/03 07:49:17;;;;;;;63.05;32.00;;;;;;;;;;5102462;27;20537;-80
2022/02/03 07:51:43;;;;;;;62.05;30.98;;;;;;;;;;5098183;27;20082;-78
2022/02/03 07:54:10;;;;;;;77.30;33.85;;;;;;;;;;5096516;27;20533;-78
2022/02/03 07:56:36;;;;;;;60.58;33.10;;;;;;;;;;5100279;27;20055;-77
2022/02/03 07:59:03;;;;;;;67.80;33.83;;;;;;;;;;5104520;28;20063;-77
2022/02/03 08:01:29;;;;;;;63.15;34.08;;;;;;;;;;5097287;27;20131;-77
2022/02/03 08:03:56;;;;;;;61.25;34.78;;;;;;;;;;5088219;27;20050;-77
2022/02/03 08:06:27;;;;;;;63.40;33.53;;;;;;;;;;5102217;27;20061;-78
2022/02/03 08:09:00;;;;;;;68.60;34.97;;;;;;;;;;5106204;27;20043;-77
2022/02/03 08:11:32;;;;;;;64.73;34.70;;;;;;;;;;5105792;27;20043;-77
2022/02/03 08:14:08;;;;;;;67.03;34.13;;;;;;;;;;5093897;27;20414;-77
2022/02/03 08:16:42;;;;;;;65.72;35.78;;;;;;;;;;5104194;27;20282;-77
2022/02/03 08:19:16;;;;;;;65.65;35.45;;;;;;;;;;5114004;27;20047;-81
2022/02/03 08:21:47;;;;;;;70.55;35.55;;;;;;;;;;5137092;27;20118;-77
2022/02/03 08:24:26;;;;;;;67.43;35.72;;;;;;;;;;5107495;27;20051;-76
2022/02/03 08:27:55;;;;;;;69.30;38.08;;;;;;;;;;5094857;27;20435;-76
2022/02/03 08:32:24;;;;;;;;;;;;;;;;;;5101138;28;20047;-81
2022/02/03 08:35:08;;;;;;;59.05;32.58;;;;;;;;;;5119229;27;19994;-76
2022/02/03 08:37:47;;;;;;;61.40;35.38;;;;;;;;;;5108106;27;20043;-77
2022/02/03 08:40:21;;;;;;;58.67;34.20;;;;;;;;;;5090990;27;20471;-77
2022/02/03 08:42:47;;;;;;;66.03;34.67;;;;;;;;;;5110748;27;20050;-79
2022/02/03 08:45:14;;;;;;;63.53;34.00;;;;;;;;;;5075636;27;20067;-77
2022/02/03 08:47:40;;;;;;;59.15;34.28;;;;;;;;;;5103012;28;20054;-77
2022/02/03 08:50:08;;;;;;;64.35;33.55;;;;;;;;;;5112829;27;20055;-82
2022/02/03 09:28:56;;;;;;;38.83;24.10;;;;;;;;;;5092814;28;20039;-77
2022/02/03 09:39:07;;;;;;;39.15;23.90;;;;;;;;;;5097196;28;20403;-85
2022/02/03 10:01:05;;;;;;;37.70;20.25;;;;;;;;;;5108785;27;20043;-84
2022/02/03 10:03:38;;;;;;;35.08;19.80;;;;;;;;;;5123756;27;20035;-84
2022/02/03 10:06:08;;;;;;;33.78;20.35;;;;;;;;;;5080390;27;20180;-84
2022/02/03 10:08:35;;;;;;;30.02;19.95;;;;;;;;;;5141512;27;20487;-84
2022/02/03 10:11:11;;;;;;;37.53;20.00;;;;;;;;;;5100169;28;20077;-83
2022/02/03 10:13:48;;;;;;;34.67;18.90;;;;;;;;;;5092300;27;20050;-85
2022/02/03 10:16:15;;;;;;;30.65;19.90;;;;;;;;;;5108195;27;20208;-79
2022/02/03 10:18:41;;;;;;;35.05;19.30;;;;;;;;;;5101236;27;20047;-81
2022/02/03 10:21:10;;;;;;;36.53;20.67;;;;;;;;;;5111735;28;20036;-80
2022/02/03 10:23:58;;;;;;;35.38;19.88;;;;;;;;;;5101597;27;20131;-78
2022/02/03 10:26:33;;;;;;;33.63;20.00;;;;;;;;;;5132622;27;20126;-76
2022/02/03 10:28:59;;;;;;;37.97;19.77;;;;;;;;;;5086317;27;20056;-81
2022/02/03 10:31:26;;;;;;;36.08;19.65;;;;;;;;;;5114849;27;20043;-82
2022/02/03 10:34:06;;;;;;;30.85;19.42;;;;;;;;;;5097141;28;20048;-82
2022/02/03 10:37:11;;;;;;;29.48;18.40;;;;;;;;;;5111515;27;20109;-82
2022/02/03 11:01:21;;;;;;;37.78;20.73;;;;;;;;;;5112017;27;20043;-84
2022/02/03 11:04:32;;;;;;;37.85;21.33;;;;;;;;;;5112591;27;20043;-83
2022/02/03 11:12:08;;;;;;;33.72;20.20;;;;;;;;;;5865589;22;20084;-79
2022/02/03 11:14:36;;;;;;;35.67;22.20;;;;;;;;;;5000993;28;20058;-78
2022/02/03 11:17:04;;;;;;;39.35;20.70;;;;;;;;;;5012338;28;20042;-78
2022/02/03 11:19:32;;;;;;;30.17;21.13;;;;;;;;;;5014710;28;20487;-78
2022/02/03 11:22:05;;;;;;;34.25;21.08;;;;;;;;;;5002164;28;20049;-79
2022/02/03 11:24:34;;;;;;;35.20;22.45;;;;;;;;;;5016070;28;20443;-83
2022/02/03 11:27:12;;;;;;;30.70;21.50;;;;;;;;;;5020388;28;20048;-83
2022/02/03 11:30:30;;;;;;;36.72;21.70;;;;;;;;;;4999167;28;20049;-81
2022/02/03 11:40:49;;;;;;;32.58;21.15;;;;;;;;;;4988580;28;20602;-84
2022/02/03 11:48:50;;;;;;;28.52;18.52;;;;;;;;;;5018948;28;20132;-81
2022/02/03 11:52:39;;;;;;;30.23;18.98;;;;;;;;;;5001008;28;20049;-80
2022/02/03 12:10:33;;;;;;;25.35;16.08;;;;;;;;;;5001432;28;20062;-85
2022/02/03 12:22:01;;;;;;;26.23;15.35;;;;;;;;;;5011062;28;20055;-92
2022/02/03 12:24:43;;;;;;;26.13;15.38;;;;;;;;;;5020769;28;20045;-83
2022/02/03 12:30:04;;;;;;;21.02;15.43;;;;;;;;;;5009849;28;20468;-89
2022/02/03 12:40:44;;;;;;;19.45;14.93;;;;;;;;;;4989262;28;20049;-90
2022/02/03 12:45:51;;;;;;;24.27;16.23;;;;;;;;;;5002481;28;22082;-81
2022/02/03 12:48:27;;;;;;;20.23;14.25;;;;;;;;;;5008998;28;20128;-80
2022/02/03 12:50:55;;;;;;;22.83;14.32;;;;;;;;;;5008167;28;20048;-79
2022/02/03 12:53:21;;;;;;;21.35;15.02;;;;;;;;;;4969732;28;20057;-83
2022/02/03 12:55:51;;;;;;;20.92;13.85;;;;;;;;;;5007188;28;20182;-82
2022/02/03 12:58:21;;;;;;;23.02;14.88;;;;;;;;;;4992711;28;20052;-84
2022/02/03 13:00:55;;;;;;;24.33;15.13;;;;;;;;;;5006065;28;20056;-83
2022/02/03 13:03:27;;;;;;;21.95;14.43;;;;;;;;;;5003158;28;20045;-83
2022/02/03 13:05:55;;;;;;;26.03;14.97;;;;;;;;;;4992550;28;20077;-84
2022/02/03 13:08:31;;;;;;;23.30;13.18;;;;;;;;;;4997748;28;20148;-83
2022/02/03 13:11:12;;;;;;;21.40;13.88;;;;;;;;;;4991577;28;20446;-83
2022/02/03 13:13:52;;;;;;;23.15;14.73;;;;;;;;;;5006951;28;20507;-81
2022/02/03 13:16:18;;;;;;;20.63;14.73;;;;;;;;;;4988590;28;20434;-83
2022/02/03 13:18:52;;;;;;;19.33;14.18;;;;;;;;;;5006337;28;20079;-81
2022/02/03 13:21:34;;;;;;;;;;;;;;;;;;5009483;28;20056;-81
2022/02/03 13:24:08;;;;;;;23.13;13.73;;;;;;;;;;4993067;28;20056;-83
2022/02/03 13:26:37;;;;;;;23.45;14.07;;;;;;;;;;4989876;28;20415;-83
2022/02/03 13:29:06;;;;;;;16.10;13.15;;;;;;;;;;4986966;28;20041;-84
2022/02/03 13:31:47;;;;;;;22.27;15.07;;;;;;;;;;4995923;28;20049;-87
2022/02/03 13:34:46;;;;;;;20.25;13.50;;;;;;;;;;5011077;28;20062;-81
2022/02/03 13:37:20;;;;;;;17.55;13.18;;;;;;;;;;5008761;28;20500;-78
2022/02/03 13:39:47;;;;;;;19.40;12.43;;;;;;;;;;5011012;28;20121;-79
2022/02/03 13:42:14;;;;;;;15.27;12.13;;;;;;;;;;4994847;28;20431;-80
2022/02/03 13:44:40;;;;;;;14.68;10.85;;;;;;;;;;4994229;28;20068;-81
2022/02/03 13:47:19;;;;;;;13.75;10.60;;;;;;;;;;4981058;28;20484;-83
2022/02/03 13:49:45;;;;;;;12.73;10.07;;;;;;;;;;4996648;28;20050;-81
2022/02/03 13:52:16;;;;;;;18.25;11.85;;;;;;;;;;4995122;28;20144;-83
2022/02/03 14:12:47;;;;;;;9.68;8.27;;;;;;;;;;5035429;28;20462;-86
2022/02/03 14:23:22;;;;;;;10.18;7.30;;;;;;;;;;5021081;28;20053;-85
2022/02/03 14:28:27;;;;;;;12.55;9.88;;;;;;;;;;4996282;28;20046;-88
2022/02/03 14:30:56;;;;;;;11.60;10.23;;;;;;;;;;4978386;28;20042;-90
2022/02/03 14:33:28;;;;;;;15.95;11.73;;;;;;;;;;5006888;28;20041;-93
2022/02/03 14:36:03;;;;;;;17.40;11.63;;;;;;;;;;5004895;28;20065;-90
2022/02/03 14:38:33;;;;;;;14.75;11.30;;;;;;;;;;5009564;28;20170;-91
2022/02/03 14:43:31;;;;;;;11.80;9.70;;;;;;;;;;5013553;28;20045;-90
2022/02/03 14:46:01;;;;;;;18.45;10.45;;;;;;;;;;4994893;28;20053;-86
2022/02/03 14:48:28;;;;;;;15.48;9.80;;;;;;;;;;4993285;28;20041;-90
2022/02/03 14:50:55;;;;;;;13.95;10.13;;;;;;;;;;4997685;28;20045;-90
2022/02/03 14:53:48;;;;;;;12.23;9.55;;;;;;;;;;5002489;28;20076;-93
2022/02/03 14:58:59;;;;;;;13.50;10.10;;;;;;;;;;5011555;28;20049;-80
2022/02/03 15:01:25;;;;;;;17.10;11.50;;;;;;;;;;4996491;28;20045;-80
2022/02/03 15:03:55;;;;;;;17.75;11.30;;;;;;;;;;4974298;28;20114;-80
2022/02/03 15:06:24;;;;;;;19.08;11.85;;;;;;;;;;5012353;28;20053;-85
2022/02/03 15:14:15;;;;;;;18.55;12.55;;;;;;;;;;5003964;28;20419;-80
2022/02/03 15:16:41;;;;;;;17.52;11.10;;;;;;;;;;4989417;28;20502;-78
2022/02/03 15:19:07;;;;;;;21.98;12.23;;;;;;;;;;5009746;28;20046;-76
2022/02/03 15:21:33;;;;;;;17.67;12.30;;;;;;;;;;5003119;28;20061;-78
2022/02/03 15:24:01;;;;;;;25.02;12.25;;;;;;;;;;4991403;28;20050;-76
2022/02/03 15:26:27;;;;;;;21.13;12.27;;;;;;;;;;5010138;28;20072;-86
2022/02/03 15:28:54;;;;;;;19.35;12.10;;;;;;;;;;5006699;28;20103;-77
2022/02/03 15:31:22;;;;;;;20.45;13.30;;;;;;;;;;5007684;28;20059;-77
2022/02/03 15:33:56;;;;;;;18.40;12.88;;;;;;;;;;5007821;28;20054;-80
2022/02/03 15:36:23;;;;;;;33.97;14.02;;;;;;;;;;4981832;28;20055;-81
2022/02/03 15:38:49;;;;;;;29.60;14.13;;;;;;;;;;4994416;28;20286;-81
2022/02/03 15:41:26;;;;;;;23.83;13.48;;;;;;;;;;4988823;28;20056;-81
2022/02/03 15:43:55;;;;;;;30.70;15.57;;;;;;;;;;4989012;28;20524;-80
2022/02/03 15:46:23;;;;;;;27.88;14.50;;;;;;;;;;4990134;28;20716;-80
2022/02/03 15:48:59;;;;;;;33.13;15.30;;;;;;;;;;4991482;28;20369;-81
2022/02/03 15:57:24;;;;;;;26.30;14.48;;;;;;;;;;5002770;28;20053;-81
2022/02/03 16:18:34;;;;;;;32.55;16.42;;;;;;;;;;5007669;28;20369;-81
2022/02/03 16:21:13;;;;;;;31.48;17.17;;;;;;;;;;5008302;28;20065;-80
2022/02/03 16:50:55;;;;;;;33.90;17.73;;;;;;;;;;4995437;28;20045;-87
2022/02/03 16:53:20;;;;;;;37.50;18.63;;;;;;;;;;5000916;28;20045;-88
2022/02/03 16:55:47;;;;;;;34.28;19.70;;;;;;;;;;5018496;28;20546;-82
2022/02/03 16:58:14;;;;;;;37.88;20.13;;;;;;;;;;4996679;28;20049;-82
2022/02/03 17:00:40;;;;;;;42.28;20.42;;;;;;;;;;4985402;28;20049;-86
2022/02/03 17:03:07;;;;;;;35.88;20.10;;;;;;;;;;5009962;28;20048;-86
2022/02/03 17:05:35;;;;;;;41.13;20.80;;;;;;;;;;5030183;28;20056;-86
2022/02/03 17:08:02;;;;;;;39.15;20.98;;;;;;;;;;5018962;28;20038;-86
2022/02/03 17:10:28;;;;;;;40.35;20.67;;;;;;;;;;4992517;28;20461;-89
2022/02/03 17:12:54;;;;;;;43.92;23.00;;;;;;;;;;5022720;28;20041;-87
2022/02/03 17:15:21;;;;;;;46.50;22.17;;;;;;;;;;4994437;28;20053;-86
2022/02/03 17:17:50;;;;;;;41.13;21.90;;;;;;;;;;4987312;28;20073;-83
2022/02/03 17:20:17;;;;;;;41.65;23.80;;;;;;;;;;4996697;28;20137;-84
2022/02/03 17:22:47;;;;;;;40.85;22.83;;;;;;;;;;4994186;28;20125;-83
2022/02/03 17:25:20;;;;;;;37.25;22.83;;;;;;;;;;4997210;28;20061;-89
2022/02/03 17:27:55;;;;;;;41.35;23.48;;;;;;;;;;5018321;28;20045;-85
2022/02/03 17:30:48;;;;;;;41.38;22.35;;;;;;;;;;5002769;28;20128;-91
2022/02/03 17:53:36;;;;;;;48.22;22.10;;;;;;;;;;5010543;28;20112;-79
2022/02/03 18:11:47;;;;;;;47.10;24.85;;;;;;;;;;4997841;28;20049;-87
2022/02/03 18:25:54;;;;;;;51.22;24.42;;;;;;;;;;5019652;28;20045;-90
2022/02/03 18:52:14;;;;;;;48.88;22.35;;;;;;;;;;5008095;28;20068;-90
2022/02/03 18:55:01;;;;;;;43.40;21.90;;;;;;;;;;4993662;28;20042;-92
2022/02/03 18:57:45;;;;;;;40.17;21.45;;;;;;;;;;5021290;28;20104;-90
2022/02/03 20:07:57;;;;;;;49.85;23.83;;;;;;;;;;5021672;28;20684;-91
2022/02/03 20:10:31;;;;;;;49.85;23.77;;;;;;;;;;4993482;28;20041;-92
2022/02/03 20:12:57;;;;;;;48.25;22.80;;;;;;;;;;4991800;28;20068;-91
2022/02/03 20:15:25;;;;;;;53.47;24.45;;;;;;;;;;5009461;28;20053;-91
2022/02/03 20:17:51;;;;;;;61.78;22.88;;;;;;;;;;5005231;28;20053;-91
2022/02/03 20:20:17;;;;;;;44.88;23.30;;;;;;;;;;5010358;28;20051;-91
2022/02/03 20:22:44;;;;;;;56.05;23.02;;;;;;;;;;5007682;28;20041;-91
2022/02/03 20:25:11;;;;;;;49.97;23.45;;;;;;;;;;5006456;28;21131;-90
2022/02/03 20:27:37;;;;;;;50.08;24.30;;;;;;;;;;5004836;28;20053;-89
2022/02/03 20:30:05;;;;;;;52.85;24.55;;;;;;;;;;5007599;28;20128;-89
2022/02/03 20:32:32;;;;;;;49.58;22.88;;;;;;;;;;5004024;28;20063;-90
2022/02/03 20:34:59;;;;;;;51.03;22.40;;;;;;;;;;5001234;28;20046;-90
2022/02/03 20:37:26;;;;;;;46.70;22.05;;;;;;;;;;5021772;28;20492;-90
2022/02/03 20:39:52;;;;;;;47.38;22.25;;;;;;;;;;5004388;28;20099;-90
2022/02/03 20:42:18;;;;;;;53.35;24.25;;;;;;;;;;5001310;28;20041;-90
2022/02/03 20:44:45;;;;;;;49.17;22.85;;;;;;;;;;5011828;28;20149;-90
2022/02/03 20:47:11;;;;;;;47.47;24.50;;;;;;;;;;5006549;28;20086;-91
2022/02/03 20:49:38;;;;;;;56.65;22.58;;;;;;;;;;5006069;28;20041;-88
2022/02/03 20:52:04;;;;;;;50.67;22.50;;;;;;;;;;5008190;28;20480;-88
2022/02/03 20:54:30;;;;;;;56.10;21.80;;;;;;;;;;5018861;28;20041;-90
2022/02/03 20:56:57;;;;;;;57.38;24.73;;;;;;;;;;5009026;28;20061;-91
2022/02/03 20:59:29;;;;;;;52.30;22.77;;;;;;;;;;5012990;28;20107;-88
2022/02/03 21:01:58;;;;;;;52.38;22.95;;;;;;;;;;5016585;28;20084;-83
2022/02/03 21:04:35;;;;;;;63.97;23.90;;;;;;;;;;5028540;28;20084;-84
2022/02/03 21:07:01;;;;;;;57.40;23.63;;;;;;;;;;4998086;28;20447;-83
2022/02/03 21:09:27;;;;;;;54.85;23.75;;;;;;;;;;5009198;28;20053;-83
2022/02/03 21:11:53;;;;;;;58.78;22.25;;;;;;;;;;4982518;28;20068;-93
2022/02/03 21:14:20;;;;;;;56.85;22.83;;;;;;;;;;4994907;28;20060;-89
2022/02/03 21:16:51;;;;;;;51.53;23.77;;;;;;;;;;4997248;28;20831;-88
2022/02/03 21:19:18;;;;;;;60.88;23.77;;;;;;;;;;5003508;28;20053;-89
2022/02/03 21:21:44;;;;;;;58.25;23.60;;;;;;;;;;4999201;28;20047;-90
2022/02/03 21:24:10;;;;;;;52.95;23.65;;;;;;;;;;4988088;28;20057;-88
2022/02/03 21:26:45;;;;;;;58.47;23.70;;;;;;;;;;4987400;28;20099;-88
2022/02/03 21:29:12;;;;;;;51.92;22.83;;;;;;;;;;4996463;28;20128;-92
2022/02/03 21:31:38;;;;;;;48.70;22.35;;;;;;;;;;4997540;28;20457;-85
2022/02/03 21:34:09;;;;;;;54.00;23.83;;;;;;;;;;4997317;28;20061;-80
2022/02/03 21:36:39;;;;;;;56.00;24.38;;;;;;;;;;5000675;28;20072;-90
2022/02/03 21:39:05;;;;;;;53.33;23.80;;;;;;;;;;5003819;28;20076;-86
2022/02/03 21:41:31;;;;;;;51.17;25.00;;;;;;;;;;5007158;28;20052;-86
2022/02/03 21:43:57;;;;;;;48.15;24.00;;;;;;;;;;5022838;28;20049;-89
2022/02/03 21:46:23;;;;;;;60.70;24.88;;;;;;;;;;5012775;28;20025;-89
2022/02/03 21:48:50;;;;;;;57.10;23.58;;;;;;;;;;5011950;28;20060;-85
2022/02/03 21:51:20;;;;;;;48.97;25.10;;;;;;;;;;5028054;28;20067;-87
2022/02/03 21:53:46;;;;;;;57.60;25.75;;;;;;;;;;5000592;28;20080;-86
2022/02/03 21:56:13;;;;;;;53.08;23.83;;;;;;;;;;5018398;28;20077;-84
2022/02/03 21:58:39;;;;;;;48.92;23.33;;;;;;;;;;5008577;28;20493;-78
2022/02/03 22:01:05;;;;;;;50.83;25.08;;;;;;;;;;5014350;28;20518;-77
2022/02/03 22:03:31;;;;;;;54.35;23.98;;;;;;;;;;4988243;28;20084;-79
2022/02/03 22:05:58;;;;;;;53.53;23.83;;;;;;;;;;4996246;28;20057;-83
2022/02/03 22:08:25;;;;;;;47.88;23.17;;;;;;;;;;4994965;28;20048;-83
2022/02/03 22:10:51;;;;;;;43.70;21.00;;;;;;;;;;5013143;28;20053;-84
2022/02/03 22:13:18;;;;;;;43.85;19.98;;;;;;;;;;5013168;28;20045;-83
2022/02/03 22:15:44;;;;;;;38.28;20.30;;;;;;;;;;5001724;28;20301;-83
2022/02/03 22:18:16;;;;;;;50.00;21.20;;;;;;;;;;4995604;28;20065;-83
2022/02/03 22:20:55;;;;;;;36.55;20.95;;;;;;;;;;4994419;28;20148;-84
2022/02/03 22:23:45;;;;;;;52.25;21.98;;;;;;;;;;5012576;28;20088;-84
2022/02/03 22:42:50;;;;;;;39.78;22.08;;;;;;;;;;4996288;28;20095;-89
2022/02/03 22:45:23;;;;;;;47.67;21.88;;;;;;;;;;4981105;28;20496;-86
2022/02/03 22:50:18;;;;;;;42.17;22.25;;;;;;;;;;5023724;28;20045;-87
2022/02/03 22:52:45;;;;;;;39.55;21.95;;;;;;;;;;5012013;28;20935;-88
2022/02/03 22:55:11;;;;;;;46.03;22.15;;;;;;;;;;4997866;28;20103;-86
2022/02/03 22:57:38;;;;;;;47.67;22.67;;;;;;;;;;4995634;28;20381;-92
2022/02/03 23:00:15;;;;;;;43.45;22.45;;;;;;;;;;4996121;28;20056;-88
2022/02/03 23:02:41;;;;;;;50.42;22.60;;;;;;;;;;5010726;28;20487;-86
2022/02/03 23:05:09;;;;;;;46.53;23.23;;;;;;;;;;4986409;28;20048;-87
2022/02/03 23:07:39;;;;;;;45.50;23.15;;;;;;;;;;4988112;28;20044;-87
2022/02/03 23:12:55;;;;;;;46.10;23.77;;;;;;;;;;5003778;28;20099;-86
2022/02/03 23:21:14;;;;;;;59.65;26.33;;;;;;;;;;5002177;28;20037;-85
2022/02/03 23:23:36;;;;;;;52.92;27.73;;;;;;;;;;4989362;28;20443;-84
2022/02/03 23:26:04;;;;;;;50.75;26.33;;;;;;;;;;5004829;28;20069;-84
2022/02/03 23:28:33;;;;;;;57.20;27.60;;;;;;;;;;4989198;28;20037;-83
2022/02/03 23:30:59;;;;;;;52.17;28.83;;;;;;;;;;4986412;28;20571;-86
2022/02/03 23:33:28;;;;;;;55.85;30.27;;;;;;;;;;4996180;28;20041;-86
2022/02/03 23:35:54;;;;;;;58.25;30.88;;;;;;;;;;4992844;28;20111;-84
2022/02/03 23:38:37;;;;;;;61.33;32.72;;;;;;;;;;4991138;28;20168;-86
